Gibson, Missouri
Current Conditions -  °F | °C
As of 5:53 PM on Friday 24 Oct 2014 (Local Time) from KPOF Reporting Station
Clear Clear  
Wind Chill: 67°   Ceiling: Unl
Heat Index: 67°   Visibility: 7mi
Dew Point: 53°   Wind: 5mph
Humidity: 61%   Direction: 210°SSW
Pressure: 30.04"   Gusts: NA
Location:  36.44°N, 90.03°W
Report Text: KPOF 242253Z AUTO 21004KT 7SM CLR 19/12 A3004 RMK AO2 SLP174 T01940117
Loading
Personal Weather Stations






























Interactive Weather Map
Tropical Storm Tracking
New forecast layout! Learn more

10-Day Weather Forecast

Advertisements
Track Severe Weather on mobile